createdAt,value
2023-03-25T00:01:10.409Z,5.20
2023-03-25T00:07:15.757Z,7.47
2023-03-25T00:13:19.175Z,2.17
2023-03-25T00:19:22.590Z,7.35
2023-03-25T00:25:27.433Z,5.80
2023-03-25T00:31:30.860Z,6.85
2023-03-25T00:37:34.251Z,5.95
2023-03-25T00:43:39.105Z,7.70
2023-03-25T00:49:42.786Z,7.55
2023-03-25T00:55:46.269Z,9.02
2023-03-25T01:01:53.353Z,7.25
2023-03-25T01:07:56.900Z,11.10
2023-03-25T01:14:00.982Z,7.70
2023-03-25T01:20:08.797Z,4.30
2023-03-25T01:26:13.117Z,8.45
2023-03-25T01:32:16.846Z,9.55
2023-03-25T01:38:22.391Z,5.78
2023-03-25T01:44:44.535Z,9.35
2023-03-25T01:50:50.514Z,7.47
2023-03-25T01:56:56.059Z,10.10
2023-03-25T02:03:01.437Z,14.32
2023-03-25T02:09:09.108Z,9.73
2023-03-25T02:15:14.375Z,8.88
2023-03-25T02:21:46.432Z,7.85
2023-03-25T02:27:59.168Z,7.10
2023-03-25T02:34:16.029Z,7.32
2023-03-25T02:40:22.934Z,6.15
2023-03-25T02:46:28.032Z,4.80
2023-03-25T02:52:33.693Z,6.25
2023-03-25T02:58:39.496Z,7.65
2023-03-25T03:04:47.133Z,3.00
2023-03-25T03:10:52.940Z,5.07
2023-03-25T03:17:03.868Z,5.25
2023-03-25T03:23:11.134Z,6.72
2023-03-25T03:29:16.495Z,6.38
2023-03-25T03:35:24.606Z,2.95
2023-03-25T03:41:29.257Z,7.18
2023-03-25T03:47:34.949Z,3.83
2023-03-25T03:53:42.073Z,5.72
2023-03-25T03:59:49.564Z,2.70
2023-03-25T04:05:55.286Z,5.68
2023-03-25T04:12:02.768Z,3.22
2023-03-25T04:18:06.273Z,7.20
2023-03-25T04:24:09.644Z,6.10
2023-03-25T04:30:17.626Z,5.07
2023-03-25T04:36:22.738Z,6.63
2023-03-25T04:42:33.126Z,5.07
2023-03-25T04:48:41.623Z,9.35
2023-03-25T04:54:46.433Z,9.85
2023-03-25T05:00:50.999Z,7.13
2023-03-25T05:06:56.944Z,11.18
2023-03-25T05:13:01.056Z,6.47
2023-03-25T05:19:06.684Z,8.77
2023-03-25T05:25:12.098Z,8.93
2023-03-25T05:31:15.537Z,12.85
2023-03-25T05:37:19.195Z,7.38
2023-03-25T05:43:24.580Z,7.45
2023-03-25T05:49:28.065Z,9.77
2023-03-25T05:55:31.603Z,10.00
2023-03-25T06:01:37.552Z,7.03
2023-03-25T06:07:42.874Z,9.90
2023-03-25T06:13:49.711Z,13.98
2023-03-25T06:19:54.497Z,11.65
2023-03-25T06:25:58.728Z,14.18
2023-03-25T06:32:02.245Z,10.43
2023-03-25T06:38:07.188Z,16.73
2023-03-25T06:44:10.724Z,9.18
2023-03-25T06:50:14.200Z,12.68
2023-03-25T06:56:19.062Z,12.20
2023-03-25T07:02:22.439Z,11.27
2023-03-25T07:08:26.123Z,8.70
2023-03-25T07:14:30.986Z,14.95
2023-03-25T07:20:34.434Z,13.43
2023-03-25T07:26:38.037Z,10.95
2023-03-25T07:32:42.853Z,13.23
2023-03-25T07:38:46.298Z,16.38
2023-03-25T07:44:49.685Z,8.50
2023-03-25T07:50:54.573Z,11.23
2023-03-25T07:56:58.965Z,14.70
2023-03-25T08:03:03.646Z,11.63
2023-03-25T08:09:08.797Z,10.77
2023-03-25T08:15:12.964Z,4.38
2023-03-25T08:21:17.398Z,11.93
2023-03-25T08:27:22.148Z,11.40
2023-03-25T08:33:27.680Z,9.38
2023-03-25T08:39:37.085Z,7.80
2023-03-25T08:45:41.922Z,9.88
2023-03-25T08:51:45.524Z,12.00
2023-03-25T08:57:48.908Z,9.55
2023-03-25T09:03:55.816Z,14.90
2023-03-25T09:09:59.232Z,12.45
2023-03-25T09:16:02.712Z,8.70
2023-03-25T09:22:07.736Z,7.90
2023-03-25T09:28:11.192Z,8.60
2023-03-25T09:34:16.053Z,14.52
2023-03-25T09:40:21.940Z,13.65
2023-03-25T09:46:25.967Z,9.13
2023-03-25T09:52:31.042Z,9.25
2023-03-25T09:58:42.556Z,8.75
2023-03-25T10:04:51.716Z,7.25
2023-03-25T10:11:00.207Z,14.57
2023-03-25T10:17:11.556Z,6.05
2023-03-25T10:23:18.198Z,8.30
2023-03-25T10:29:22.255Z,6.70
2023-03-25T10:35:29.893Z,10.95
2023-03-25T10:41:35.574Z,7.97
2023-03-25T10:47:39.546Z,5.03
2023-03-25T10:53:47.312Z,11.07
2023-03-25T10:59:57.084Z,7.82
2023-03-25T11:06:00.584Z,5.70
2023-03-25T11:12:06.906Z,7.97
2023-03-25T11:18:14.084Z,7.68
2023-03-25T11:24:20.420Z,7.57
2023-03-25T11:30:26.000Z,6.40
2023-03-25T11:36:30.582Z,12.05
2023-03-25T11:42:35.311Z,4.78
2023-03-25T11:48:41.409Z,7.47
2023-03-25T11:54:44.983Z,7.90
2023-03-25T12:00:49.739Z,11.63
2023-03-25T12:06:59.024Z,8.23
2023-03-25T12:13:04.030Z,9.50
2023-03-25T12:19:13.454Z,10.35
2023-03-25T12:25:26.403Z,9.27
2023-03-25T12:31:35.203Z,8.27
2023-03-25T12:37:46.466Z,8.25
2023-03-25T12:43:58.544Z,7.90
2023-03-25T12:50:09.368Z,9.57
2023-03-25T12:56:23.385Z,11.00
2023-03-25T13:02:36.015Z,6.80
2023-03-25T13:08:42.468Z,5.95
2023-03-25T13:14:51.953Z,5.10
2023-03-25T13:21:05.014Z,9.25
2023-03-25T13:27:15.805Z,5.82
2023-03-25T13:33:21.957Z,8.30
2023-03-25T13:39:27.947Z,6.35
2023-03-25T13:45:33.394Z,5.57
2023-03-25T13:51:36.856Z,6.97
2023-03-25T13:57:47.631Z,8.77
2023-03-25T14:04:09.447Z,7.43
2023-03-25T14:10:42.786Z,9.88
2023-03-25T14:16:49.179Z,6.40
2023-03-25T14:22:57.293Z,13.68
2023-03-25T14:29:05.061Z,8.32
2023-03-25T14:35:27.232Z,6.63
2023-03-25T14:41:49.391Z,6.10
2023-03-25T14:47:55.385Z,5.95
2023-03-25T14:54:02.175Z,5.28
2023-03-25T15:00:13.714Z,8.35
2023-03-25T15:06:19.111Z,11.70
2023-03-25T15:12:25.297Z,6.68
2023-03-25T15:18:49.551Z,22.13
2023-03-25T15:24:56.173Z,14.88
2023-03-25T15:31:04.948Z,12.18
2023-03-25T15:37:19.866Z,14.45
2023-03-25T15:43:39.247Z,12.93
2023-03-25T15:50:02.268Z,10.02
2023-03-25T15:56:09.708Z,16.60
2023-03-25T16:02:23.905Z,21.13
2023-03-25T16:08:30.235Z,17.13
2023-03-25T16:14:34.416Z,11.93
2023-03-25T16:20:39.459Z,39.05
2023-03-25T16:26:43.853Z,23.70
2023-03-25T16:32:47.254Z,17.92
2023-03-25T16:38:52.155Z,23.33
2023-03-25T16:44:57.771Z,22.13
2023-03-25T16:51:03.019Z,24.33
2023-03-25T16:57:09.658Z,15.88
2023-03-25T17:03:15.627Z,16.83
2023-03-25T17:09:19.932Z,16.40
2023-03-25T17:15:25.086Z,15.13
2023-03-25T17:21:30.267Z,17.98
2023-03-25T17:27:36.142Z,11.80
2023-03-25T17:33:48.708Z,19.25
2023-03-25T17:39:52.953Z,16.08
2023-03-25T17:45:56.362Z,15.10
2023-03-25T17:52:01.315Z,22.58
2023-03-25T17:58:05.155Z,16.70
2023-03-25T18:04:08.557Z,17.45
2023-03-25T18:10:18.509Z,18.38
2023-03-25T18:16:22.685Z,17.10
2023-03-25T18:22:26.482Z,15.00
2023-03-25T18:28:31.710Z,13.35
2023-03-25T18:34:35.666Z,20.30
2023-03-25T18:40:39.249Z,17.42
2023-03-25T18:46:44.540Z,15.30
2023-03-25T18:52:47.959Z,14.10
2023-03-25T18:58:51.469Z,19.27
2023-03-25T19:05:01.174Z,16.70
2023-03-25T19:11:19.172Z,17.92
2023-03-25T19:17:24.111Z,14.98
2023-03-25T19:23:29.129Z,15.20
2023-03-25T19:29:32.753Z,18.50
2023-03-25T19:35:36.174Z,17.85
2023-03-25T19:41:42.835Z,16.15
2023-03-25T19:47:46.821Z,15.13
2023-03-25T19:53:50.251Z,17.60
2023-03-25T19:59:55.270Z,20.85
2023-03-25T20:05:58.863Z,15.65
2023-03-25T20:12:02.944Z,19.98
2023-03-25T20:18:07.935Z,15.52
2023-03-25T20:24:11.651Z,15.27
2023-03-25T20:30:16.037Z,15.80
2023-03-25T20:36:21.620Z,17.45
2023-03-25T20:42:25.085Z,14.80
2023-03-25T20:48:28.713Z,21.63
2023-03-25T20:54:33.915Z,17.52
2023-03-25T21:00:37.470Z,19.50
2023-03-25T21:06:42.023Z,18.92
2023-03-25T21:12:47.256Z,15.68
2023-03-25T21:18:51.368Z,20.80
2023-03-25T21:24:54.834Z,19.38
2023-03-25T21:31:04.574Z,19.23
2023-03-25T21:37:08.152Z,20.23
2023-03-25T21:43:11.744Z,22.35
2023-03-25T21:49:16.528Z,16.67
2023-03-25T21:55:22.786Z,15.98
2023-03-25T22:01:29.710Z,14.73
2023-03-25T22:07:34.772Z,17.00
2023-03-25T22:13:38.380Z,18.88
2023-03-25T22:19:42.471Z,17.35
2023-03-25T22:25:47.343Z,16.67
2023-03-25T22:31:50.957Z,14.77
2023-03-25T22:37:55.489Z,19.02
2023-03-25T22:44:00.710Z,13.25
2023-03-25T22:50:04.394Z,13.13
2023-03-25T22:56:08.434Z,16.80
2023-03-25T23:02:14.650Z,17.33
2023-03-25T23:08:18.074Z,12.32
2023-03-25T23:14:21.499Z,14.00
2023-03-25T23:20:28.024Z,14.23
2023-03-25T23:26:34.917Z,13.52
2023-03-25T23:32:39.880Z,13.57
2023-03-25T23:38:46.432Z,20.90
2023-03-25T23:44:49.904Z,27.15
2023-03-25T23:50:54.043Z,10.63
2023-03-25T23:56:58.960Z,13.20
